Time;durP1;ratioP1;P1;durP2;ratioP2;P2;SDS_P1;SDS_P2;PMS_P1;PMS_P2;Temp;Humidity;BMP_temperature;BMP_pressure;BME280_temperature;BME280_humidity;BME280_pressure;Samples;Min_cycle;Max_cycle;Signal;HPM_P1;HPM_P2
2022/04/13 00:00:08;;;;;;;3.30;1.70;;;17.30;41.50;;;;;;5067507;28;21010;-80
2022/04/13 00:02:36;;;;;;;2.40;1.50;;;17.20;39.80;;;;;;5061122;28;20471;-80
2022/04/13 00:05:06;;;;;;;1.53;1.43;;;17.30;40.10;;;;;;5061001;28;20610;-78
2022/04/13 00:07:34;;;;;;;2.80;1.53;;;17.40;41.00;;;;;;5064403;28;20451;-79
2022/04/13 00:10:03;;;;;;;2.10;1.83;;;17.20;41.90;;;;;;5066024;28;20477;-80
2022/04/13 00:12:31;;;;;;;1.70;1.60;;;17.20;40.20;;;;;;5064132;28;20446;-79
2022/04/13 00:15:02;;;;;;;2.17;1.97;;;17.10;41.90;;;;;;5064068;28;20534;-79
2022/04/13 00:17:31;;;;;;;3.93;2.27;;;17.10;41.30;;;;;;5069445;28;20458;-79
2022/04/13 00:20:00;;;;;;;2.73;1.53;;;17.10;42.40;;;;;;5062252;28;20530;-80
2022/04/13 00:22:28;;;;;;;2.07;1.70;;;17.00;43.00;;;;;;5065486;28;20463;-80
2022/04/13 00:24:56;;;;;;;2.00;1.73;;;17.00;45.50;;;;;;5061219;28;20473;-81
2022/04/13 00:27:24;;;;;;;1.60;1.50;;;17.00;47.20;;;;;;5065827;28;20521;-80
2022/04/13 00:29:52;;;;;;;2.30;1.53;;;16.90;47.00;;;;;;5065400;28;20451;-80
2022/04/13 00:32:22;;;;;;;1.47;1.33;;;16.90;46.00;;;;;;5061868;28;20516;-80
2022/04/13 00:34:50;;;;;;;3.30;1.57;;;17.00;60.00;;;;;;5052512;28;20535;-80
2022/04/13 00:37:18;;;;;;;1.80;1.43;;;17.00;45.00;;;;;;5063772;28;20457;-79
2022/04/13 00:39:46;;;;;;;1.40;1.30;;;16.90;45.40;;;;;;5059196;28;20548;-79
2022/04/13 00:42:16;;;;;;;5.37;2.07;;;16.90;45.30;;;;;;5064119;28;20536;-79
2022/04/13 00:44:45;;;;;;;1.83;1.70;;;16.80;45.40;;;;;;5064592;28;20995;-79
2022/04/13 00:47:13;;;;;;;1.70;1.40;;;16.70;45.60;;;;;;5064158;28;20478;-79
2022/04/13 00:49:43;;;;;;;1.70;1.40;;;16.70;46.60;;;;;;5064773;28;20455;-78
2022/04/13 00:52:14;;;;;;;1.50;1.40;;;16.70;47.40;;;;;;5065782;28;20443;-78
2022/04/13 00:54:43;;;;;;;3.27;1.80;;;16.70;62.20;;;;;;5062907;28;20470;-78
2022/04/13 00:57:12;;;;;;;1.50;1.40;;;16.60;47.80;;;;;;5061983;28;21009;-78
2022/04/13 00:59:41;;;;;;;4.27;2.20;;;16.50;50.90;;;;;;5057942;28;20875;-78
2022/04/13 01:02:09;;;;;;;1.97;1.73;;;16.60;49.90;;;;;;5059077;28;20484;-78
2022/04/13 01:04:38;;;;;;;2.13;1.47;;;16.60;51.70;;;;;;5062015;28;20478;-79
2022/04/13 01:07:10;;;;;;;2.00;1.83;;;16.60;52.60;;;;;;5064641;28;20455;-79
2022/04/13 01:09:40;;;;;;;2.43;1.80;;;16.60;59.30;;;;;;5057123;28;20453;-78
2022/04/13 01:12:09;;;;;;;2.10;2.00;;;16.60;54.20;;;;;;5059911;28;20859;-77
2022/04/13 01:14:37;;;;;;;2.50;1.60;;;16.60;53.70;;;;;;5056365;28;20868;-76
2022/04/13 01:17:07;;;;;;;1.43;1.33;;;16.50;54.80;;;;;;5061489;28;20527;-79
2022/04/13 01:19:36;;;;;;;1.63;1.53;;;16.40;55.80;;;;;;5059932;28;20636;-77
2022/04/13 01:22:19;;;;;;;4.30;1.73;;;16.40;58.60;;;;;;5064131;28;20489;-77
2022/04/13 01:24:48;;;;;;;2.73;1.60;;;16.30;56.80;;;;;;5057283;28;20479;-78
2022/04/13 01:27:17;;;;;;;2.43;1.57;;;16.20;58.20;;;;;;5066002;28;20536;-77
2022/04/13 01:29:48;;;;;;;1.70;1.40;;;16.30;59.00;;;;;;5063261;28;20450;-76
2022/04/13 01:32:16;;;;;;;1.70;1.60;;;16.20;59.70;;;;;;5059944;28;20476;-79
2022/04/13 01:34:48;;;;;;;3.93;1.63;;;16.20;60.00;;;;;;5063605;28;20468;-78
2022/04/13 01:37:18;;;;;;;2.13;1.93;;;16.20;58.90;;;;;;5058481;28;20470;-79
2022/04/13 01:39:47;;;;;;;5.10;2.10;;;16.20;57.90;;;;;;5067794;28;20463;-81
2022/04/13 01:42:15;;;;;;;3.73;1.97;;;16.10;62.00;;;;;;5065722;28;20577;-80
2022/04/13 01:44:45;;;;;;;1.97;1.73;;;16.10;62.70;;;;;;5057560;28;20474;-79
2022/04/13 01:47:13;;;;;;;3.57;2.20;;;16.10;63.80;;;;;;5063202;28;20494;-78
2022/04/13 01:49:42;;;;;;;2.17;1.97;;;16.10;63.30;;;;;;5053193;28;20481;-77
2022/04/13 01:52:12;;;;;;;2.00;1.80;;;16.20;62.40;;;;;;5058588;28;21387;-77
2022/04/13 01:54:41;;;;;;;2.20;2.00;;;16.20;63.50;;;;;;5060151;28;20491;-78
2022/04/13 01:57:10;;;;;;;2.30;2.10;;;16.30;67.60;;;;;;5059322;28;20469;-78
2022/04/13 01:59:38;;;;;;;3.17;2.47;;;16.20;65.10;;;;;;5058661;28;20985;-78
2022/04/13 02:02:06;;;;;;;2.27;1.60;;;16.00;64.60;;;;;;5056817;28;20539;-78
2022/04/13 02:04:36;;;;;;;2.60;1.57;;;15.90;66.50;;;;;;5053384;28;20768;-78
2022/04/13 02:07:05;;;;;;;2.13;1.93;;;15.90;68.30;;;;;;5062112;28;20470;-78
2022/04/13 02:09:33;;;;;;;2.20;2.00;;;15.90;71.00;;;;;;5059497;28;20821;-79
2022/04/13 02:12:03;;;;;;;1.90;1.80;;;15.90;72.10;;;;;;5058661;28;20452;-78
2022/04/13 02:14:31;;;;;;;2.17;1.77;;;15.90;73.20;;;;;;5062141;28;20995;-80
2022/04/13 02:16:59;;;;;;;2.90;2.30;;;15.90;76.80;;;;;;5059603;28;20449;-79
2022/04/13 02:19:27;;;;;;;2.13;1.93;;;15.80;76.60;;;;;;5062169;28;20460;-79
2022/04/13 02:21:56;;;;;;;2.10;1.90;;;15.80;76.90;;;;;;5061336;28;20490;-79
2022/04/13 02:24:24;;;;;;;4.07;2.27;;;15.80;77.10;;;;;;5066164;28;20475;-78
2022/04/13 02:26:52;;;;;;;5.10;2.17;;;15.80;76.30;;;;;;5058358;28;20534;-78
2022/04/13 02:29:21;;;;;;;2.63;2.27;;;15.80;77.20;;;;;;5056106;28;20478;-79
2022/04/13 02:31:50;;;;;;;2.50;2.30;;;16.00;77.60;;;;;;5060556;28;20962;-80
2022/04/13 02:34:18;;;;;;;2.20;1.87;;;15.70;77.70;;;;;;5056907;28;21056;-78
2022/04/13 02:36:46;;;;;;;2.30;2.10;;;15.70;75.30;;;;;;5063386;28;20454;-78
2022/04/13 02:39:14;;;;;;;2.33;2.20;;;15.70;77.40;;;;;;5058967;28;20458;-78
2022/04/13 02:41:42;;;;;;;2.20;1.90;;;15.70;77.80;;;;;;5062188;28;20479;-78
2022/04/13 02:44:11;;;;;;;7.27;2.30;;;15.60;78.30;;;;;;5056240;28;20496;-77
2022/04/13 02:46:41;;;;;;;2.63;2.43;;;15.60;80.60;;;;;;5059590;28;20462;-78
2022/04/13 02:49:11;;;;;;;3.00;2.70;;;15.50;77.90;;;;;;5063755;28;20463;-79
2022/04/13 02:51:39;;;;;;;2.93;2.00;;;15.50;78.10;;;;;;5058900;28;20446;-79
2022/04/13 02:54:07;;;;;;;2.23;1.70;;;15.50;78.60;;;;;;5057993;28;20552;-77
2022/04/13 02:56:35;;;;;;;2.90;2.00;;;15.40;78.60;;;;;;5053246;28;20474;-79
2022/04/13 02:59:03;;;;;;;2.20;2.00;;;15.50;80.90;;;;;;5064809;28;20473;-78
2022/04/13 03:01:32;;;;;;;2.90;1.70;;;15.30;81.90;;;;;;5063129;28;20477;-79
2022/04/13 03:04:01;;;;;;;1.60;1.50;;;15.40;81.40;;;;;;5061249;28;20968;-78
2022/04/13 03:06:29;;;;;;;2.30;1.90;;;15.40;83.40;;;;;;5063886;28;20461;-78
2022/04/13 03:08:58;;;;;;;1.70;1.60;;;15.30;84.80;;;;;;5063827;28;21027;-78
2022/04/13 03:11:26;;;;;;;2.67;2.03;;;15.30;85.30;;;;;;5053336;28;20515;-78
2022/04/13 03:13:54;;;;;;;2.23;2.03;;;15.30;87.20;;;;;;5065183;28;20477;-79
2022/04/13 03:16:22;;;;;;;2.03;1.70;;;15.20;86.90;;;;;;5065549;28;20470;-79
2022/04/13 03:18:50;;;;;;;2.73;1.73;;;15.20;87.10;;;;;;5058801;28;20468;-78
2022/04/13 03:21:20;;;;;;;1.57;1.47;;;15.10;90.00;;;;;;5060103;28;21083;-79
2022/04/13 03:23:48;;;;;;;3.57;2.03;;;15.10;90.70;;;;;;5063714;28;20493;-78
2022/04/13 03:26:16;;;;;;;2.37;1.83;;;15.20;90.80;;;;;;5061142;28;20470;-79
2022/04/13 03:28:44;;;;;;;2.30;2.10;;;15.10;90.20;;;;;;5065337;28;20458;-79
2022/04/13 03:31:12;;;;;;;2.40;2.20;;;15.10;91.30;;;;;;5061317;28;20988;-79
2022/04/13 03:33:40;;;;;;;2.13;2.03;;;15.10;91.30;;;;;;5062019;28;21059;-77
2022/04/13 03:36:09;;;;;;;4.30;2.37;;;15.10;91.30;;;;;;5047080;28;20455;-78
2022/04/13 03:38:38;;;;;;;5.37;2.73;;;15.20;91.10;;;;;;5063856;28;20513;-78
2022/04/13 03:41:06;;;;;;;2.07;1.53;;;15.10;92.80;;;;;;5066107;28;20475;-78
2022/04/13 03:43:35;;;;;;;2.13;1.93;;;15.10;93.50;;;;;;5059888;28;20486;-78
2022/04/13 03:46:03;;;;;;;2.93;2.73;;;15.00;94.00;;;;;;5062682;28;20453;-78
2022/04/13 03:48:34;;;;;;;2.60;2.27;;;15.00;94.40;;;;;;5057690;28;20523;-78
2022/04/13 03:51:02;;;;;;;2.80;2.27;;;15.00;94.10;;;;;;5064893;28;20463;-78
2022/04/13 03:53:31;;;;;;;2.80;2.57;;;15.00;95.00;;;;;;5068199;28;21087;-78
2022/04/13 03:56:00;;;;;;;2.60;2.10;;;15.00;94.70;;;;;;5068290;28;20454;-78
2022/04/13 03:58:28;;;;;;;2.83;2.60;;;15.00;96.10;;;;;;5062808;28;20468;-78
2022/04/13 04:00:56;;;;;;;2.20;2.00;;;15.00;95.20;;;;;;5066328;28;20870;-78
2022/04/13 04:03:24;;;;;;;3.97;2.13;;;15.00;95.80;;;;;;5059052;28;20560;-79
2022/04/13 04:05:54;;;;;;;3.00;2.50;;;15.00;96.10;;;;;;5064349;28;20460;-78
2022/04/13 04:08:23;;;;;;;2.83;2.60;;;15.00;96.50;;;;;;5061378;28;20453;-79
2022/04/13 04:10:52;;;;;;;2.80;2.53;;;14.90;98.10;;;;;;5053592;28;20458;-77
2022/04/13 04:13:22;;;;;;;2.87;2.30;;;14.80;98.80;;;;;;5054273;28;20828;-79
2022/04/13 04:15:50;;;;;;;3.37;2.40;;;14.70;98.80;;;;;;5059894;28;20828;-78
2022/04/13 04:18:18;;;;;;;3.90;2.40;;;14.70;99.60;;;;;;5061130;28;20459;-79
2022/04/13 04:20:46;;;;;;;2.20;2.00;;;14.70;99.10;;;;;;5059505;28;20961;-78
2022/04/13 04:23:15;;;;;;;4.70;2.70;;;14.80;99.30;;;;;;5059521;28;20473;-78
2022/04/13 04:25:43;;;;;;;2.80;2.43;;;14.80;99.00;;;;;;5056448;28;20466;-79
2022/04/13 04:28:12;;;;;;;2.13;2.03;;;14.90;99.90;;;;;;5059288;28;20446;-79
2022/04/13 04:30:42;;;;;;;3.00;2.73;;;14.70;99.10;;;;;;5067117;28;20439;-78
2022/04/13 04:33:13;;;;;;;3.33;2.23;;;14.70;98.40;;;;;;5057527;28;20472;-79
2022/04/13 04:35:41;;;;;;;2.73;2.50;;;14.70;98.70;;;;;;5060210;28;20461;-78
2022/04/13 04:38:09;;;;;;;6.97;3.80;;;14.60;99.20;;;;;;5060183;28;20450;-80
2022/04/13 04:40:37;;;;;;;2.73;2.47;;;14.60;99.90;;;;;;5062979;28;20454;-79
2022/04/13 04:43:05;;;;;;;3.80;2.30;;;14.60;99.90;;;;;;5056470;28;21227;-78
2022/04/13 04:45:34;;;;;;;4.03;2.20;;;14.50;99.90;;;;;;5062501;28;20473;-78
2022/04/13 04:48:05;;;;;;;2.40;2.10;;;14.60;99.90;;;;;;5059026;28;20483;-79
2022/04/13 04:50:34;;;;;;;2.50;2.30;;;14.50;99.90;;;;;;5063237;28;20591;-77
2022/04/13 04:53:03;;;;;;;2.10;1.90;;;14.70;99.90;;;;;;5059305;28;20558;-79
2022/04/13 04:55:32;;;;;;;2.43;2.23;;;14.40;99.90;;;;;;5057377;28;20478;-77
2022/04/13 04:58:01;;;;;;;4.70;2.53;;;14.40;99.90;;;;;;5060773;28;20461;-79
2022/04/13 05:00:29;;;;;;;4.70;3.30;;;14.50;99.90;;;;;;5057106;28;20594;-78
2022/04/13 05:02:57;;;;;;;5.87;2.67;;;14.60;99.90;;;;;;5057762;28;20477;-76
2022/04/13 05:05:28;;;;;;;3.20;2.77;;;14.50;99.90;;;;;;5059819;28;20828;-78
2022/04/13 05:07:56;;;;;;;4.67;2.50;;;14.30;99.90;;;;;;5060678;28;20463;-78
2022/04/13 05:10:24;;;;;;;2.30;2.10;;;14.40;99.90;;;;;;5054355;28;20469;-78
2022/04/13 05:12:56;;;;;;;2.50;2.00;;;14.40;99.90;;;;;;5058885;28;21213;-78
2022/04/13 05:15:26;;;;;;;2.30;2.10;;;14.40;99.90;;;;;;5059936;28;20478;-80
2022/04/13 05:17:54;;;;;;;4.80;2.70;;;14.30;99.90;;;;;;5057517;28;20832;-79
2022/04/13 05:20:22;;;;;;;4.07;3.00;;;14.30;99.90;;;;;;5056093;28;20603;-78
2022/04/13 05:22:51;;;;;;;3.87;3.30;;;14.30;99.90;;;;;;5050841;28;20461;-78
2022/04/13 05:25:20;;;;;;;3.57;3.13;;;14.30;99.90;;;;;;5059980;28;20488;-79
2022/04/13 05:27:48;;;;;;;3.80;2.97;;;14.30;99.90;;;;;;5061543;28;20465;-79
2022/04/13 05:30:16;;;;;;;3.20;2.23;;;14.50;99.90;;;;;;5061053;28;20462;-78
2022/04/13 05:32:49;;;;;;;3.73;1.80;;;14.50;99.90;;;;;;5058505;28;20462;-79
2022/04/13 05:35:18;;;;;;;3.50;2.20;;;14.50;99.90;;;;;;5058607;28;20473;-79
2022/04/13 05:37:46;;;;;;;4.07;2.60;;;14.60;99.90;;;;;;5058115;28;20541;-79
2022/04/13 05:40:16;;;;;;;4.10;3.20;;;14.60;99.90;;;;;;5061783;28;20462;-79
2022/04/13 05:42:44;;;;;;;3.57;2.70;;;14.60;99.90;;;;;;5056156;28;21002;-80
2022/04/13 05:45:14;;;;;;;3.47;3.17;;;14.60;99.90;;;;;;5054642;28;20476;-80
2022/04/13 05:47:43;;;;;;;3.60;2.87;;;14.70;99.90;;;;;;5060795;28;20454;-79
2022/04/13 05:50:12;;;;;;;6.13;3.70;;;14.70;99.90;;;;;;5065120;28;20473;-79
2022/04/13 05:52:42;;;;;;;3.00;2.70;;;14.70;99.90;;;;;;5064996;28;21233;-79
2022/04/13 05:55:11;;;;;;;6.80;3.00;;;14.70;99.90;;;;;;5059819;28;20486;-80
2022/04/13 05:57:41;;;;;;;3.27;2.87;;;14.70;99.90;;;;;;5058731;28;20462;-79
2022/04/13 06:00:11;;;;;;;3.67;3.37;;;14.80;99.90;;;;;;5057302;28;20473;-80
2022/04/13 06:02:41;;;;;;;5.00;2.83;;;14.80;99.90;;;;;;5057977;28;20504;-78
2022/04/13 06:05:10;;;;;;;3.20;2.80;;;14.90;99.90;;;;;;5059430;28;21008;-79
2022/04/13 06:07:38;;;;;;;3.53;2.83;;;14.90;99.90;;;;;;5060181;28;20503;-79
2022/04/13 06:10:07;;;;;;;4.10;2.40;;;15.00;99.90;;;;;;5066241;28;20462;-79
2022/04/13 06:12:35;;;;;;;4.83;2.70;;;15.00;99.90;;;;;;5063316;28;20907;-79
2022/04/13 06:15:07;;;;;;;3.40;3.10;;;15.00;99.90;;;;;;5063359;28;20474;-79
2022/04/13 06:17:36;;;;;;;4.20;2.40;;;15.10;99.90;;;;;;5058141;28;20482;-79
2022/04/13 06:20:06;;;;;;;4.00;2.87;;;15.20;99.90;;;;;;5059174;28;20445;-79
2022/04/13 06:22:39;;;;;;;3.47;2.97;;;15.30;99.90;;;;;;5059933;28;20472;-78
2022/04/13 06:25:08;;;;;;;4.60;2.97;;;15.40;99.90;;;;;;5060868;28;20489;-79
2022/04/13 06:27:37;;;;;;;3.80;2.73;;;15.50;99.90;;;;;;5058982;28;20461;-79
2022/04/13 06:30:09;;;;;;;6.03;2.37;;;15.50;99.90;;;;;;5061718;28;20457;-78
2022/04/13 06:32:39;;;;;;;5.93;2.60;;;15.60;99.90;;;;;;5060415;28;20525;-78
2022/04/13 06:35:09;;;;;;;4.47;2.70;;;15.60;99.90;;;;;;5060475;28;20455;-79
2022/04/13 06:37:37;;;;;;;3.83;3.40;;;15.60;99.90;;;;;;5057412;28;20459;-79
2022/04/13 06:40:07;;;;;;;3.70;2.30;;;15.70;99.90;;;;;;5061587;28;20457;-79
2022/04/13 06:42:37;;;;;;;3.93;3.10;;;15.70;99.90;;;;;;5054733;28;21173;-77
2022/04/13 06:45:09;;;;;;;4.90;4.07;;;15.80;99.90;;;;;;5056011;28;21105;-79
2022/04/13 06:47:37;;;;;;;4.10;2.93;;;15.80;99.90;;;;;;5060157;28;20452;-78
2022/04/13 06:50:07;;;;;;;5.23;2.83;;;15.80;99.90;;;;;;5061113;28;20528;-80
2022/04/13 06:52:36;;;;;;;6.23;2.97;;;15.80;99.90;;;;;;5060199;28;20431;-76
2022/04/13 06:55:05;;;;;;;8.10;3.20;;;15.90;99.90;;;;;;5061145;28;20465;-79
2022/04/13 06:57:37;;;;;;;2.73;2.53;;;16.00;99.90;;;;;;5064177;28;20458;-79
2022/04/13 07:00:09;;;;;;;5.50;2.97;;;16.10;99.90;;;;;;5062092;28;20440;-80
2022/04/13 07:02:38;;;;;;;4.53;2.97;;;16.20;99.90;;;;;;5057898;28;20838;-79
2022/04/13 07:05:26;;;;;;;3.30;3.00;;;16.30;99.90;;;;;;5052919;28;20566;-78
2022/04/13 07:07:56;;;;;;;4.70;3.27;;;16.30;99.90;;;;;;5056053;28;20452;-79
2022/04/13 07:10:27;;;;;;;4.57;2.70;;;16.40;99.90;;;;;;5057325;28;20458;-76
2022/04/13 07:12:55;;;;;;;3.60;2.90;;;16.40;99.90;;;;;;5058461;28;20450;-79
2022/04/13 07:15:27;;;;;;;4.60;3.37;;;16.50;99.90;;;;;;5055731;28;20466;-78
2022/04/13 07:17:57;;;;;;;7.57;3.70;;;16.60;99.90;;;;;;5059516;28;21204;-79
2022/04/13 07:20:25;;;;;;;5.57;3.63;;;16.70;99.90;;;;;;5058926;28;20475;-77
2022/04/13 07:22:54;;;;;;;3.93;3.07;;;16.70;99.90;;;;;;5064545;28;20962;-80
2022/04/13 07:25:24;;;;;;;5.03;3.27;;;16.90;99.90;;;;;;5056920;28;20572;-79
2022/04/13 07:27:52;;;;;;;6.60;3.00;;;16.90;99.90;;;;;;5061686;28;20531;-79
2022/04/13 07:30:20;;;;;;;6.17;3.73;;;17.00;99.90;;;;;;5062497;28;20500;-79
2022/04/13 07:32:55;;;;;;;5.50;2.80;;;17.10;99.90;;;;;;5063070;28;20454;-80
2022/04/13 07:35:24;;;;;;;3.90;2.93;;;17.20;99.90;;;;;;5061683;28;20479;-80
2022/04/13 07:37:52;;;;;;;2.80;2.50;;;17.30;99.90;;;;;;5061637;28;20451;-79
2022/04/13 07:40:20;;;;;;;2.50;2.30;;;17.30;99.90;;;;;;5064618;28;20441;-79
2022/04/13 07:42:48;;;;;;;3.00;2.80;;;17.50;99.90;;;;;;5062535;28;20824;-79
2022/04/13 07:45:16;;;;;;;4.50;2.93;;;17.60;99.90;;;;;;5061221;28;20500;-79
2022/04/13 07:47:45;;;;;;;4.33;3.17;;;17.70;99.90;;;;;;5063206;28;20861;-79
2022/04/13 07:50:15;;;;;;;3.00;2.70;;;17.80;99.90;;;;;;5064235;28;20507;-80
2022/04/13 07:52:44;;;;;;;4.93;3.70;;;17.90;99.90;;;;;;5061994;28;20498;-79
2022/04/13 07:55:12;;;;;;;3.00;2.53;;;17.90;99.90;;;;;;5059483;28;20557;-80
2022/04/13 07:57:41;;;;;;;4.77;2.43;;;18.00;99.90;;;;;;5060823;28;20752;-80
2022/04/13 08:00:11;;;;;;;4.40;2.27;;;18.10;99.90;;;;;;5059236;28;20449;-80
2022/04/13 08:02:41;;;;;;;1.77;1.67;;;18.20;99.90;;;;;;5059223;28;20458;-80
2022/04/13 08:05:10;;;;;;;2.60;2.40;;;18.20;99.90;;;;;;5054406;28;20840;-80
2022/04/13 08:07:40;;;;;;;2.90;2.30;;;18.20;99.90;;;;;;5058008;28;20446;-79
2022/04/13 08:10:09;;;;;;;6.07;1.80;;;18.20;99.90;;;;;;5059168;28;20449;-80
2022/04/13 08:12:39;;;;;;;3.20;2.00;;;18.30;99.90;;;;;;5060202;28;20446;-79
2022/04/13 08:15:09;;;;;;;3.57;2.50;;;18.40;99.90;;;;;;5057875;28;20564;-79
2022/04/13 08:17:38;;;;;;;2.10;1.90;;;18.50;99.90;;;;;;5063824;28;20447;-80
2022/04/13 08:20:09;;;;;;;3.83;1.70;;;18.50;99.90;;;;;;5062100;28;21009;-80
2022/04/13 08:22:37;;;;;;;3.27;2.20;;;18.60;99.90;;;;;;5060329;28;20565;-79
2022/04/13 08:25:07;;;;;;;2.43;1.90;;;18.70;99.90;;;;;;5060175;28;20573;-80
2022/04/13 08:27:41;;;;;;;5.53;2.10;;;18.70;99.90;;;;;;5060757;28;20477;-80
2022/04/13 08:30:10;;;;;;;2.23;1.83;;;18.70;99.90;;;;;;5060818;28;20446;-80
2022/04/13 08:32:39;;;;;;;5.07;1.67;;;18.80;99.90;;;;;;5056987;28;20460;-79
2022/04/13 08:35:09;;;;;;;3.70;1.87;;;18.90;99.90;;;;;;5048303;28;20575;-80
2022/04/13 08:37:38;;;;;;;5.13;2.20;;;18.90;99.90;;;;;;5058026;28;21276;-80
2022/04/13 08:40:12;;;;;;;2.03;1.53;;;19.00;99.90;;;;;;5060856;28;20537;-79
2022/04/13 08:42:46;;;;;;;3.40;2.40;;;19.00;99.90;;;;;;5062429;28;21275;-80
2022/04/13 08:45:21;;;;;;;2.80;1.50;;;19.10;99.90;;;;;;5054609;28;20575;-79
2022/04/13 08:47:56;;;;;;;2.73;1.90;;;19.10;99.90;;;;;;5063887;28;20446;-80
2022/04/13 08:50:27;;;;;;;4.47;1.83;;;19.20;99.90;;;;;;5053401;28;20446;-80
2022/04/13 08:52:59;;;;;;;2.20;1.30;;;19.20;99.90;;;;;;5063253;28;20451;-80
2022/04/13 08:55:31;;;;;;;3.10;1.50;;;19.30;99.90;;;;;;5055488;28;20907;-81
2022/04/13 08:58:11;;;;;;;2.90;1.60;;;19.40;99.90;;;;;;5061737;28;21033;-79
2022/04/13 09:00:48;;;;;;;1.30;1.20;;;19.40;99.90;;;;;;5059608;28;20454;-80
2022/04/13 09:03:25;;;;;;;3.33;1.50;;;19.50;99.90;;;;;;5062427;28;20449;-80
2022/04/13 09:05:56;;;;;;;7.77;1.50;;;19.60;99.90;;;;;;5062279;28;20466;-79
2022/04/13 09:08:27;;;;;;;1.73;1.50;;;19.60;99.90;;;;;;5057430;28;20458;-79
2022/04/13 09:10:57;;;;;;;2.80;1.23;;;19.70;99.90;;;;;;5060191;28;20462;-80
2022/04/13 09:13:26;;;;;;;2.23;1.40;;;19.70;99.90;;;;;;5058556;28;20475;-80
2022/04/13 09:15:55;;;;;;;1.57;1.10;;;19.70;99.90;;;;;;5057871;28;20558;-80
2022/04/13 09:18:24;;;;;;;1.70;1.10;;;19.80;99.90;;;;;;5062346;28;20493;-80
2022/04/13 09:20:52;;;;;;;2.10;1.30;;;19.90;99.90;;;;;;5061197;28;20461;-80
2022/04/13 09:23:21;;;;;;;1.50;1.37;;;20.00;99.90;;;;;;5061831;28;20481;-79
2022/04/13 09:25:52;;;;;;;1.10;0.93;;;20.00;99.90;;;;;;5058287;28;20847;-80
2022/04/13 09:28:21;;;;;;;1.43;1.20;;;20.10;99.90;;;;;;5058668;28;20459;-79
2022/04/13 09:30:50;;;;;;;2.40;1.27;;;20.20;99.90;;;;;;5057751;28;20517;-80
2022/04/13 09:33:19;;;;;;;2.03;1.37;;;20.20;99.90;;;;;;5064533;28;21025;-80
2022/04/13 09:35:47;;;;;;;2.97;1.10;;;20.30;98.90;;;;;;5063546;28;20453;-80
2022/04/13 09:38:16;;;;;;;2.20;1.20;;;20.30;98.10;;;;;;5058249;28;20454;-80
2022/04/13 09:40:44;;;;;;;1.50;1.17;;;20.30;98.30;;;;;;5058750;28;20447;-79
2022/04/13 09:43:17;;;;;;;3.43;0.90;;;20.40;99.80;;;;;;5060113;28;20478;-80
2022/04/13 09:45:49;;;;;;;1.63;0.80;;;20.50;96.90;;;;;;5055427;28;20481;-80
2022/04/13 09:48:18;;;;;;;1.73;0.90;;;20.60;97.50;;;;;;5059555;28;20459;-80
2022/04/13 09:50:49;;;;;;;2.07;1.10;;;20.60;93.60;;;;;;5060181;28;20467;-80
2022/04/13 09:53:19;;;;;;;2.40;1.00;;;20.70;93.40;;;;;;5059074;28;20505;-78
2022/04/13 09:55:51;;;;;;;1.13;0.90;;;20.80;92.80;;;;;;5061464;28;20446;-80
2022/04/13 09:58:22;;;;;;;1.37;0.90;;;20.80;89.30;;;;;;5059781;28;20458;-80
2022/04/13 10:00:53;;;;;;;2.03;1.10;;;20.80;89.90;;;;;;5058753;28;20465;-80
2022/04/13 10:03:23;;;;;;;1.90;1.27;;;20.90;92.70;;;;;;5057094;28;20988;-81
2022/04/13 10:05:53;;;;;;;1.50;1.20;;;21.00;94.70;;;;;;5059509;28;20487;-80
2022/04/13 10:08:23;;;;;;;1.60;0.97;;;21.00;91.70;;;;;;5058595;28;20947;-79
2022/04/13 10:10:53;;;;;;;2.80;0.93;;;21.10;93.70;;;;;;5061318;28;20467;-78
2022/04/13 10:13:34;;;;;;;1.17;1.07;;;21.10;93.00;;;;;;5059070;28;20463;-80
2022/04/13 10:16:07;;;;;;;2.37;1.00;;;21.20;93.30;;;;;;5057077;28;20477;-80
2022/04/13 10:18:56;;;;;;;3.03;0.97;;;21.30;93.00;;;;;;5055617;28;20461;-80
2022/04/13 10:21:34;;;;;;;1.07;0.93;;;21.40;91.30;;;;;;5057678;28;20869;-79
2022/04/13 10:24:06;;;;;;;3.70;1.00;;;21.40;88.60;;;;;;5061039;28;20482;-80
2022/04/13 10:26:34;;;;;;;3.10;0.97;;;21.30;86.40;;;;;;5055244;28;20480;-80
2022/04/13 10:29:03;;;;;;;1.57;1.10;;;21.40;85.60;;;;;;5060345;28;20710;-80
2022/04/13 10:31:32;;;;;;;2.10;1.03;;;21.40;83.80;;;;;;5057246;28;20438;-81
2022/04/13 10:34:00;;;;;;;1.43;1.10;;;21.40;88.50;;;;;;5058666;28;20564;-80
2022/04/13 10:36:29;;;;;;;5.60;1.40;;;21.40;90.10;;;;;;5057441;28;20931;-80
2022/04/13 10:38:57;;;;;;;1.27;1.00;;;21.50;89.60;;;;;;5052550;28;20463;-80
2022/04/13 10:41:27;;;;;;;2.60;1.00;;;21.50;83.00;;;;;;5059778;28;20466;-77
2022/04/13 10:43:58;;;;;;;1.20;1.10;;;21.60;80.30;;;;;;5057818;28;20547;-80
2022/04/13 10:46:26;;;;;;;0.90;0.80;;;21.60;87.10;;;;;;5061099;28;20988;-80
2022/04/13 10:49:07;;;;;;;2.27;1.10;;;21.70;90.90;;;;;;5057155;28;20550;-79
2022/04/13 10:51:37;;;;;;;2.30;1.00;;;21.70;87.30;;;;;;5052754;28;20443;-81
2022/04/13 10:54:09;;;;;;;1.60;1.10;;;21.80;88.70;;;;;;5062036;28;20474;-80
2022/04/13 10:56:40;;;;;;;2.40;1.20;;;21.80;84.00;;;;;;5068938;28;20446;-80
2022/04/13 10:59:20;;;;;;;2.73;1.07;;;21.80;80.00;;;;;;5072331;28;20477;-80
2022/04/13 11:01:53;;;;;;;2.67;1.20;;;21.80;80.60;;;;;;5064359;28;20444;-80
2022/04/13 11:04:24;;;;;;;2.50;0.97;;;21.90;86.30;;;;;;5059667;28;20481;-79
2022/04/13 11:06:53;;;;;;;1.60;1.13;;;21.90;85.20;;;;;;5068911;28;20486;-80
2022/04/13 11:09:26;;;;;;;2.43;1.23;;;21.90;81.20;;;;;;5065266;28;20466;-81
2022/04/13 11:11:56;;;;;;;2.77;1.40;;;22.00;86.50;;;;;;5073410;28;21228;-80
2022/04/13 11:14:26;;;;;;;1.40;1.20;;;22.10;86.20;;;;;;5059667;28;20485;-79
2022/04/13 11:17:24;;;;;;;3.00;1.17;;;22.10;82.40;;;;;;5072039;28;20450;-81
2022/04/13 11:20:21;;;;;;;1.73;0.90;;;22.10;83.30;;;;;;5056436;28;20465;-80
2022/04/13 11:23:13;;;;;;;1.10;1.00;;;22.10;81.80;;;;;;5069183;28;20458;-82
2022/04/13 11:25:50;;;;;;;1.00;0.90;;;22.20;84.90;;;;;;5064716;28;20480;-79
2022/04/13 11:28:30;;;;;;;2.40;0.90;;;22.20;85.20;;;;;;5064765;28;20504;-80
2022/04/13 11:31:08;;;;;;;3.63;1.30;;;22.20;83.60;;;;;;5064267;28;20460;-79
2022/04/13 11:33:53;;;;;;;2.90;1.70;;;22.30;84.40;;;;;;5063754;28;20459;-81
2022/04/13 11:36:25;;;;;;;4.43;1.13;;;22.30;84.70;;;;;;5063752;28;20450;-81
2022/04/13 11:39:14;;;;;;;3.37;1.43;;;22.40;85.40;;;;;;5066476;28;20472;-81
2022/04/13 11:41:52;;;;;;;2.40;1.20;;;22.40;79.00;;;;;;5065341;28;20461;-80
2022/04/13 11:44:22;;;;;;;2.10;1.03;;;22.30;76.40;;;;;;5064199;28;20482;-79
2022/04/13 11:46:50;;;;;;;1.57;1.20;;;22.30;78.60;;;;;;5061062;28;20488;-80
2022/04/13 11:49:18;;;;;;;1.70;1.10;;;22.40;84.70;;;;;;5058876;28;20537;-81
2022/04/13 11:51:48;;;;;;;1.90;1.13;;;22.40;85.80;;;;;;5065836;28;20979;-80
2022/04/13 11:54:16;;;;;;;1.23;0.83;;;22.50;96.30;;;;;;5061358;28;20527;-80
2022/04/13 11:56:52;;;;;;;1.73;0.90;;;22.50;84.60;;;;;;5062664;28;20453;-81
2022/04/13 11:59:45;;;;;;;2.40;1.00;;;22.60;81.40;;;;;;5062843;28;20524;-80
2022/04/13 12:02:15;;;;;;;1.87;1.10;;;22.60;79.10;;;;;;5062844;28;20786;-79
2022/04/13 12:04:45;;;;;;;3.10;0.90;;;22.70;82.30;;;;;;5061884;28;20489;-80
2022/04/13 12:07:16;;;;;;;1.13;0.97;;;22.70;86.70;;;;;;5057430;28;20478;-80
2022/04/13 12:09:45;;;;;;;1.20;0.90;;;22.80;84.30;;;;;;5060809;28;20450;-80
2022/04/13 12:12:16;;;;;;;2.10;1.10;;;22.80;84.20;;;;;;5063962;28;20880;-79
2022/04/13 12:14:54;;;;;;;2.00;1.23;;;22.80;84.90;;;;;;5064968;28;20477;-79
2022/04/13 12:17:23;;;;;;;1.90;1.10;;;22.90;81.00;;;;;;5053257;28;20859;-79
2022/04/13 12:19:51;;;;;;;3.63;1.17;;;22.90;80.80;;;;;;5065267;28;20454;-78
2022/04/13 12:22:22;;;;;;;7.33;1.90;;;22.80;79.40;;;;;;5064526;28;21299;-77
2022/04/13 12:24:59;;;;;;;13.70;5.20;;;22.90;86.80;;;;;;5057861;28;20577;-77
2022/04/13 12:27:27;;;;;;;10.63;5.30;;;22.90;97.90;;;;;;5062258;28;20582;-77
2022/04/13 12:30:11;;;;;;;14.67;3.70;;;22.90;99.90;;;;;;5057605;28;20464;-78
2022/04/13 12:32:46;;;;;;;9.23;2.53;;;22.90;99.90;;;;;;5052337;28;21018;-77
2022/04/13 12:35:18;;;;;;;4.40;1.70;;;22.80;96.00;;;;;;5056675;28;20470;-77
2022/04/13 12:37:53;;;;;;;4.80;2.33;;;22.80;97.30;;;;;;5063564;28;20451;-77
2022/04/13 12:40:24;;;;;;;2.63;1.27;;;22.80;97.70;;;;;;5067030;28;20478;-76
2022/04/13 12:42:52;;;;;;;5.73;1.70;;;22.90;97.80;;;;;;5063358;28;20933;-77
2022/04/13 12:45:27;;;;;;;4.13;1.70;;;22.80;97.70;;;;;;5062884;28;20549;-77
2022/04/13 12:47:56;;;;;;;5.93;2.47;;;22.80;94.50;;;;;;5064552;28;20473;-77
2022/04/13 12:50:24;;;;;;;3.17;1.30;;;22.90;95.90;;;;;;5064635;28;20461;-77
2022/04/13 12:52:59;;;;;;;4.20;1.73;;;22.80;96.80;;;;;;5064971;28;20458;-77
2022/04/13 12:55:29;;;;;;;3.60;1.30;;;22.90;98.50;;;;;;5062513;28;20557;-78
2022/04/13 12:57:59;;;;;;;3.07;1.37;;;22.80;97.70;;;;;;5062145;28;20526;-78
2022/04/13 13:00:49;;;;;;;2.27;1.57;;;22.80;95.60;;;;;;5067027;28;20455;-80